Ava, Missouri
Current Conditions -  °F | °C
As of 1:35 AM on Monday 22 Dec 2014 (Local Time) from KBBG Reporting Station
Overcast Overcast  
Wind Chill: 35°   Ceiling: 2200
Heat Index: 41°   Visibility: 10mi
Dew Point: 37°   Wind: 10mph
Humidity: 87%   Direction: 120°ESE
Pressure: 29.76"   Gusts: NA
Location:  36.95°N, 92.66°W
Report Text: KBBG 220735Z AUTO 12009KT 10SM OVC022 05/03 A2976 RMK AO2
Loading
Personal Weather Stations






























Interactive Weather Map New forecast layout! Learn more

10-Day Weather Forecast

Advertisements
Track Severe Weather on mobile